Time;durP1;ratioP1;P1;durP2;ratioP2;P2;SDS_P1;SDS_P2;PMS_P1;PMS_P2;Temp;Humidity;BMP_temperature;BMP_pressure;BME280_temperature;BME280_humidity;BME280_pressure;Samples;Min_cycle;Max_cycle;Signal;HPM_P1;HPM_P2
2022/07/23 00:01:28;;;;;;;17.92;15.07;;;16.90;99.90;16.40;100522;;;;573694;244;46256;-81
2022/07/23 00:03:55;;;;;;;14.83;10.93;;;16.90;99.90;16.30;100514;;;;578441;244;24076;-83
2022/07/23 00:06:23;;;;;;;14.47;11.10;;;16.90;99.90;16.30;100520;;;;578620;244;24130;-82
2022/07/23 00:08:51;;;;;;;17.70;10.43;;;16.90;99.90;16.30;100524;;;;578460;244;24083;-81
2022/07/23 00:11:21;;;;;;;16.08;14.38;;;16.90;99.90;16.30;100518;;;;573407;244;46221;-82
2022/07/23 00:13:46;;;;;;;13.73;11.07;;;16.80;99.90;16.20;100526;;;;577980;244;24084;-76
2022/07/23 00:16:14;;;;;;;18.60;11.43;;;16.80;99.90;16.20;100526;;;;578152;244;24079;-80
2022/07/23 00:18:42;;;;;;;11.57;9.83;;;16.80;99.90;16.20;100529;;;;578310;244;24064;-76
2022/07/23 00:21:10;;;;;;;15.10;9.37;;;16.70;99.90;16.10;100528;;;;578281;244;24110;-78
2022/07/23 00:23:38;;;;;;;14.13;10.13;;;16.70;99.90;16.10;100530;;;;578850;244;24109;-79
2022/07/23 00:26:07;;;;;;;13.07;10.20;;;16.70;99.90;16.10;100531;;;;578871;244;24083;-82
2022/07/23 00:28:34;;;;;;;17.10;10.90;;;16.70;99.90;16.00;100526;;;;578613;244;24080;-81
2022/07/23 00:31:02;;;;;;;11.27;9.13;;;16.60;99.90;16.10;100536;;;;578501;244;24096;-81
2022/07/23 00:33:30;;;;;;;14.57;10.87;;;16.60;99.90;16.10;100535;;;;578504;244;24077;-81
2022/07/23 00:35:58;;;;;;;12.50;10.30;;;16.70;99.90;16.10;100533;;;;578479;244;24065;-83
2022/07/23 00:38:26;;;;;;;12.77;10.17;;;16.70;99.90;16.20;100531;;;;578518;244;24065;-77
2022/07/23 00:40:54;;;;;;;15.93;10.50;;;16.70;99.90;16.20;100526;;;;578545;244;24064;-80
2022/07/23 00:43:22;;;;;;;13.27;11.00;;;16.80;99.90;16.30;100522;;;;578465;244;24088;-80
2022/07/23 00:45:49;;;;;;;15.13;10.23;;;16.90;99.90;16.30;100531;;;;578317;244;24104;-75
2022/07/23 00:48:17;;;;;;;13.20;10.53;;;16.90;99.90;16.40;100523;;;;587287;244;24069;-75
2022/07/23 00:50:45;;;;;;;14.87;10.93;;;17.00;99.90;16.50;100527;;;;578319;244;24084;-75
2022/07/23 00:53:13;;;;;;;13.30;10.87;;;17.10;99.90;16.60;100523;;;;586985;244;24095;-75
2022/07/23 00:55:42;;;;;;;14.20;9.93;;;17.20;99.90;16.60;100523;;;;577946;244;24107;-76
2022/07/23 00:58:10;;;;;;;13.53;11.27;;;17.20;99.90;16.70;100523;;;;578085;244;24074;-75
2022/07/23 01:00:38;;;;;;;17.67;11.23;;;17.30;99.90;16.80;100520;;;;578053;244;24067;-79
2022/07/23 01:03:07;;;;;;;14.80;11.10;;;17.40;99.90;16.80;100524;;;;578261;242;24097;-75
2022/07/23 01:05:35;;;;;;;12.87;9.40;;;17.50;99.90;16.90;100528;;;;579641;244;24070;-81
2022/07/23 01:08:03;;;;;;;12.80;10.83;;;17.40;99.90;16.90;100532;;;;579145;244;24161;-82
2022/07/23 01:10:31;;;;;;;16.20;10.20;;;17.50;99.90;16.90;100525;;;;579112;244;24105;-79
2022/07/23 01:13:06;;;;;;;14.87;10.67;;;17.60;99.90;17.00;100529;;;;578885;244;24096;-77
2022/07/23 01:15:33;;;;;;;16.37;10.53;;;17.60;99.90;17.00;100524;;;;578949;244;24090;-76
2022/07/23 01:18:05;;;;;;;13.37;9.83;;;17.60;99.90;17.00;100512;;;;584532;244;24086;-75
2022/07/23 01:20:29;;;;;;;13.27;11.53;;;17.60;99.90;17.00;100516;;;;577998;244;24150;-79
2022/07/23 01:22:57;;;;;;;17.67;10.93;;;17.60;99.90;17.00;100509;;;;587626;244;24081;-80
2022/07/23 01:25:25;;;;;;;11.97;9.97;;;17.60;99.90;17.00;100509;;;;578568;244;24199;-81
2022/07/23 01:27:56;;;;;;;12.10;9.73;;;17.60;99.90;17.00;100508;;;;578633;244;24172;-79
2022/07/23 01:30:21;;;;;;;14.10;9.37;;;17.60;99.90;16.90;100504;;;;578210;244;24129;-82
2022/07/23 01:32:49;;;;;;;13.63;9.63;;;17.50;99.90;16.90;100504;;;;578547;244;24094;-79
2022/07/23 01:35:17;;;;;;;11.60;8.47;;;17.40;99.90;16.80;100496;;;;578661;244;24089;-78
2022/07/23 01:37:45;;;;;;;13.57;8.53;;;17.40;99.90;16.70;100499;;;;578581;244;24225;-76
2022/07/23 01:40:13;;;;;;;9.17;7.90;;;17.30;99.90;16.60;100499;;;;578439;244;24067;-75
2022/07/23 01:42:41;;;;;;;8.77;7.87;;;17.20;99.90;16.50;100493;;;;578339;244;24143;-76
2022/07/23 01:45:08;;;;;;;11.40;8.23;;;17.10;99.90;16.40;100485;;;;578329;244;24068;-79
2022/07/23 01:47:39;;;;;;;8.77;7.87;;;17.00;99.90;16.30;100494;;;;578181;244;24073;-75
2022/07/23 01:50:04;;;;;;;9.30;8.10;;;16.90;99.90;16.20;100494;;;;578157;244;24072;-75
2022/07/23 01:52:32;;;;;;;8.30;7.37;;;16.80;99.90;16.10;100490;;;;578190;244;24089;-75
2022/07/23 01:55:00;;;;;;;11.40;6.70;;;16.70;99.90;16.00;100484;;;;586881;244;24084;-76
2022/07/23 01:57:28;;;;;;;11.20;8.73;;;16.60;99.90;15.90;100474;;;;578090;244;24115;-74
2022/07/23 01:59:56;;;;;;;11.67;8.43;;;16.50;99.90;15.80;100475;;;;578048;244;24057;-76
2022/07/23 02:02:24;;;;;;;9.97;8.30;;;16.40;99.90;15.80;100481;;;;577909;244;24082;-77
2022/07/23 02:04:52;;;;;;;8.10;7.30;;;16.40;99.90;15.70;100476;;;;578064;244;24076;-76
2022/07/23 02:07:20;;;;;;;9.03;7.63;;;16.30;99.90;15.60;100483;;;;577962;244;24079;-79
2022/07/23 02:09:48;;;;;;;11.90;9.40;;;16.20;99.90;15.60;100483;;;;578096;244;24080;-75
2022/07/23 02:12:16;;;;;;;13.30;8.50;;;16.10;99.90;15.50;100488;;;;577966;244;24074;-76
2022/07/23 02:14:43;;;;;;;10.50;8.60;;;16.10;99.90;15.50;100492;;;;578449;243;24066;-76
2022/07/23 02:17:11;;;;;;;10.63;8.23;;;16.00;99.90;15.40;100485;;;;579361;244;24094;-80
2022/07/23 02:19:40;;;;;;;10.07;9.00;;;16.00;99.90;15.50;100489;;;;579028;244;24098;-78
2022/07/23 02:22:08;;;;;;;21.50;8.97;;;16.00;99.90;15.50;100483;;;;579406;244;24115;-77
2022/07/23 02:24:36;;;;;;;11.83;8.87;;;16.00;99.90;15.50;100476;;;;579213;244;24107;-76
2022/07/23 02:27:05;;;;;;;12.53;9.87;;;16.10;99.90;15.50;100481;;;;578790;244;24126;-79
2022/07/23 02:29:33;;;;;;;11.40;9.77;;;16.10;99.90;15.50;100478;;;;578617;244;24147;-82
2022/07/23 02:32:02;;;;;;;12.27;8.80;;;16.10;99.90;15.50;100488;;;;578479;244;24104;-83
2022/07/23 02:34:31;;;;;;;11.57;9.27;;;16.10;99.90;15.50;100484;;;;578337;244;24095;-82
2022/07/23 02:36:59;;;;;;;11.80;9.40;;;16.10;99.90;15.50;100485;;;;578209;244;24086;-81
2022/07/23 02:39:27;;;;;;;13.43;9.27;;;16.10;99.90;15.60;100479;;;;587343;241;24065;-82
2022/07/23 02:41:54;;;;;;;14.50;8.37;;;16.10;99.90;15.60;100483;;;;578288;244;24123;-81
2022/07/23 02:44:22;;;;;;;10.20;9.20;;;16.20;99.90;15.60;100472;;;;578653;244;24101;-78
2022/07/23 02:46:50;;;;;;;14.53;9.77;;;16.20;99.90;15.60;100472;;;;578334;244;24094;-81
2022/07/23 02:49:18;;;;;;;13.07;9.47;;;16.20;99.90;15.60;100465;;;;578234;244;24057;-82
2022/07/23 02:51:46;;;;;;;15.70;9.30;;;16.20;99.90;15.60;100461;;;;578215;244;24068;-80
2022/07/23 02:54:14;;;;;;;14.40;8.87;;;16.20;99.90;15.60;100466;;;;577994;244;24080;-79
2022/07/23 02:56:43;;;;;;;9.20;8.27;;;16.10;99.90;15.60;100467;;;;586843;244;24111;-79
2022/07/23 02:59:11;;;;;;;13.53;9.20;;;16.10;99.90;15.50;100468;;;;578018;244;24073;-77
2022/07/23 03:01:40;;;;;;;11.13;8.70;;;16.10;99.90;15.50;100465;;;;577909;244;24139;-81
2022/07/23 03:04:08;;;;;;;14.17;9.20;;;16.10;99.90;15.50;100466;;;;578046;244;24080;-83
2022/07/23 03:06:37;;;;;;;10.03;8.07;;;16.10;99.90;15.50;100468;;;;577989;244;24096;-83
2022/07/23 03:09:08;;;;;;;9.67;8.23;;;16.10;99.90;15.50;100467;;;;578098;244;24157;-79
2022/07/23 03:11:34;;;;;;;11.90;7.77;;;16.10;99.90;15.50;100470;;;;577597;244;24087;-82
2022/07/23 03:14:03;;;;;;;11.03;8.23;;;16.10;99.90;15.50;100469;;;;578044;244;24081;-78
2022/07/23 03:16:32;;;;;;;10.07;8.13;;;16.10;99.90;15.50;100461;;;;577931;244;24082;-76
2022/07/23 03:18:59;;;;;;;11.73;8.77;;;16.10;99.90;15.60;100467;;;;577816;244;24069;-77
2022/07/23 03:21:27;;;;;;;9.33;8.30;;;16.10;99.90;15.60;100472;;;;578034;244;24064;-76
2022/07/23 03:23:55;;;;;;;8.93;8.03;;;16.10;99.90;15.60;100472;;;;578330;244;24115;-77
2022/07/23 03:26:25;;;;;;;11.10;8.20;;;16.20;99.90;15.70;100468;;;;578761;243;24107;-74
2022/07/23 03:28:52;;;;;;;11.33;8.77;;;16.20;99.90;15.80;100460;;;;579691;244;24121;-77
2022/07/23 03:31:19;;;;;;;12.67;11.37;;;16.30;99.90;15.80;100467;;;;583255;244;37973;-82
2022/07/23 03:33:47;;;;;;;13.25;11.23;;;16.40;99.90;15.90;100470;;;;574131;244;40115;-82
2022/07/23 03:36:15;;;;;;;12.20;9.07;;;16.50;99.90;15.90;100474;;;;579014;244;24104;-81
2022/07/23 03:38:43;;;;;;;11.10;8.40;;;16.50;99.90;16.00;100470;;;;578894;244;24116;-83
2022/07/23 03:41:11;;;;;;;8.00;7.00;;;16.60;99.90;16.10;100469;;;;578962;244;24090;-82
2022/07/23 03:43:39;;;;;;;10.97;7.57;;;16.70;99.90;16.10;100464;;;;578898;244;24132;-76
2022/07/23 03:46:07;;;;;;;14.33;7.83;;;16.70;99.90;16.20;100464;;;;578684;244;24136;-82
2022/07/23 03:48:34;;;;;;;8.13;6.90;;;16.70;99.90;16.20;100462;;;;578707;244;24077;-82
2022/07/23 03:51:03;;;;;;;10.30;6.77;;;16.80;99.90;16.30;100462;;;;578634;244;24100;-78
2022/07/23 03:53:30;;;;;;;8.13;7.30;;;16.80;99.90;16.40;100463;;;;578449;244;24068;-77
2022/07/23 03:55:58;;;;;;;9.63;7.90;;;16.90;99.90;16.50;100457;;;;578280;244;24079;-79
2022/07/23 03:58:26;;;;;;;13.07;7.60;;;17.00;99.90;16.50;100458;;;;587065;244;24161;-75
2022/07/23 04:00:54;;;;;;;14.07;8.13;;;17.10;99.90;16.60;100460;;;;578141;244;24118;-75
2022/07/23 04:03:23;;;;;;;10.37;7.37;;;17.20;99.90;16.70;100461;;;;578057;244;24108;-76
2022/07/23 04:05:51;;;;;;;11.67;8.07;;;17.20;99.90;16.70;100461;;;;577894;244;24088;-76
2022/07/23 04:08:19;;;;;;;10.83;7.43;;;17.30;99.90;17.20;100463;;;;578069;244;24073;-78
2022/07/23 04:10:46;;;;;;;7.67;6.97;;;17.60;99.90;18.10;100461;;;;577934;244;24108;-79
2022/07/23 04:13:14;;;;;;;8.80;6.67;;;18.50;99.90;19.20;100460;;;;578062;244;24101;-78
2022/07/23 04:15:42;;;;;;;6.93;6.17;;;19.60;99.90;20.20;100454;;;;578030;244;24084;-79
2022/07/23 04:18:10;;;;;;;7.07;6.47;;;20.70;99.90;21.30;100451;;;;577942;244;24069;-78
2022/07/23 04:20:41;;;;;;;6.70;6.10;;;21.80;99.90;22.20;100452;;;;578045;244;23114;-79
2022/07/23 04:23:06;;;;;;;5.97;5.33;;;22.80;99.90;23.20;100450;;;;583222;244;24220;-78
2022/07/23 04:25:34;;;;;;;5.90;5.30;;;23.80;99.90;24.10;100458;;;;578370;244;24136;-76
2022/07/23 04:28:05;;;;;;;6.17;5.57;;;24.80;99.90;25.00;100445;;;;578320;244;24067;-77
2022/07/23 04:30:30;;;;;;;8.38;6.05;;;25.70;99.90;25.90;100443;;;;573109;244;35260;-77
2022/07/23 04:32:58;;;;;;;5.43;4.83;;;27.10;99.90;26.40;100432;;;;578375;244;23092;-76
2022/07/23 04:35:26;;;;;;;7.63;5.00;;;27.10;99.90;26.90;100431;;;;578461;244;23079;-81
2022/07/23 04:37:54;;;;;;;6.53;5.37;;;27.70;99.90;27.50;100427;;;;587618;242;23127;-78
2022/07/23 04:40:22;;;;;;;9.07;5.17;;;28.40;99.90;28.10;100429;;;;579884;244;24059;-76
2022/07/23 04:42:50;;;;;;;5.70;5.20;;;28.90;99.90;28.80;100429;;;;579444;244;23084;-79
2022/07/23 04:45:18;;;;;;;7.97;4.90;;;29.60;99.90;29.50;100431;;;;579232;244;23074;-76
2022/07/23 04:47:46;;;;;;;5.65;4.25;;;30.30;99.40;29.70;100436;;;;579199;244;23077;-79
2022/07/23 04:50:17;;;;;;;6.60;5.03;;;30.80;97.30;30.40;100434;;;;579139;244;23084;-79
2022/07/23 04:52:42;;;;;;;7.25;5.00;;;31.30;95.00;31.10;100425;;;;573834;244;35268;-78
2022/07/23 04:55:10;;;;;;;4.50;4.10;;;31.90;92.60;31.60;100430;;;;578875;244;24124;-77
2022/07/23 04:57:38;;;;;;;5.07;4.12;;;33.00;86.70;32.00;100439;;;;578281;244;23113;-75
2022/07/23 05:00:06;;;;;;;6.30;4.65;;;33.00;86.70;32.70;100426;;;;582073;244;46335;-77
2022/07/23 05:02:34;;;;;;;8.38;4.40;;;33.60;80.80;33.10;100425;;;;578369;244;23098;-77
2022/07/23 05:05:02;;;;;;;8.60;4.65;;;34.10;77.50;33.60;100437;;;;578251;244;23086;-76
2022/07/23 05:07:30;;;;;;;5.62;3.75;;;34.60;74.60;34.20;100428;;;;578317;244;23081;-75
2022/07/23 05:09:58;;;;;;;4.07;3.42;;;35.20;72.10;35.00;100443;;;;587211;244;23093;-76
2022/07/23 05:12:27;;;;;;;5.53;3.70;;;36.20;66.00;35.20;100438;;;;578335;244;23106;-75
2022/07/23 05:14:55;;;;;;;7.10;3.92;;;36.70;63.50;35.70;100438;;;;578110;244;24094;-76
2022/07/23 05:17:23;;;;;;;4.85;3.72;;;36.60;63.50;36.20;100439;;;;577900;244;23089;-75
2022/07/23 05:19:51;;;;;;;6.78;3.60;;;37.20;61.30;36.70;100446;;;;578081;244;23098;-76
2022/07/23 05:22:19;;;;;;;4.22;3.37;;;37.60;59.20;37.10;100438;;;;577867;244;23069;-76
2022/07/23 05:24:47;;;;;;;4.72;3.50;;;38.00;57.90;37.50;100436;;;;578387;244;23101;-77
2022/07/23 05:27:15;;;;;;;6.22;3.47;;;38.30;56.30;37.70;100439;;;;578492;244;24078;-77
2022/07/23 05:29:43;;;;;;;5.78;3.58;;;38.70;56.00;38.20;100451;;;;579107;244;23085;-78
2022/07/23 05:32:11;;;;;;;6.55;3.30;;;39.00;54.90;38.50;100446;;;;578408;244;23078;-76
2022/07/23 05:34:39;;;;;;;7.97;3.53;;;39.30;54.40;38.80;100449;;;;578469;244;23083;-76
2022/07/23 05:37:10;;;;;;;3.87;3.47;;;39.60;53.80;39.20;100451;;;;579512;244;23127;-82
2022/07/23 05:39:35;;;;;;;5.57;3.80;;;40.00;53.60;39.70;100458;;;;578919;244;23105;-83
2022/07/23 05:42:05;;;;;;;5.05;3.62;;;40.40;51.80;40.20;100448;;;;578998;244;23089;-81
2022/07/23 05:44:30;;;;;;;4.40;3.33;;;40.80;50.60;40.20;100449;;;;578986;244;23090;-77
2022/07/23 05:46:58;;;;;;;3.97;3.37;;;41.00;49.90;40.50;100444;;;;578920;244;23091;-79
2022/07/23 05:49:26;;;;;;;4.45;3.45;;;41.20;49.60;40.00;100454;;;;579621;242;23119;-83
2022/07/23 05:51:54;;;;;;;5.62;3.60;;;41.00;49.50;38.20;100456;;;;580638;244;23072;-82
2022/07/23 05:54:22;;;;;;;4.22;3.65;;;39.70;50.10;36.50;100451;;;;579850;244;23090;-86
2022/07/23 05:56:50;;;;;;;4.50;3.60;;;38.00;51.80;36.30;100456;;;;579278;244;23110;-84
2022/07/23 05:59:18;;;;;;;4.50;3.87;;;37.20;53.80;36.40;100445;;;;579068;244;23156;-85
2022/07/23 06:01:46;;;;;;;5.30;3.80;;;37.10;53.60;37.00;100448;;;;587890;244;23086;-85
2022/07/23 06:04:14;;;;;;;5.45;3.78;;;37.30;53.70;38.30;100444;;;;578615;244;23078;-82
2022/07/23 06:06:42;;;;;;;8.18;3.30;;;38.40;53.00;39.90;100452;;;;579126;244;23081;-85
2022/07/23 06:09:13;;;;;;;5.18;3.50;;;39.90;51.10;40.90;100454;;;;579334;244;23089;-79
2022/07/23 06:11:37;;;;;;;4.28;3.45;;;41.00;49.60;41.50;100450;;;;578332;244;23114;-76
2022/07/23 06:14:09;;;;;;;7.93;3.58;;;41.90;48.10;42.00;100451;;;;578370;244;23071;-78
2022/07/23 06:16:33;;;;;;;5.35;3.50;;;42.40;47.70;42.20;100447;;;;577584;244;24089;-76
2022/07/23 06:19:01;;;;;;;3.72;3.42;;;42.60;47.30;42.90;100443;;;;578391;244;23080;-78
2022/07/23 06:21:30;;;;;;;7.07;3.42;;;43.80;45.30;43.50;100438;;;;578621;244;23070;-79
2022/07/23 06:23:58;;;;;;;3.75;3.40;;;43.80;45.30;44.40;100439;;;;579435;244;23133;-84
2022/07/23 06:26:26;;;;;;;3.53;3.22;;;44.60;44.20;44.80;100431;;;;588232;244;23088;-81
2022/07/23 06:28:54;;;;;;;4.03;3.58;;;45.20;43.40;45.50;100438;;;;578886;244;23154;-79
2022/07/23 06:31:22;;;;;;;3.42;3.10;;;45.90;42.60;45.60;100428;;;;578927;244;23077;-83
2022/07/23 06:33:49;;;;;;;3.97;3.67;;;46.10;42.40;46.00;100427;;;;578944;244;23087;-79
2022/07/23 06:36:17;;;;;;;6.65;3.20;;;46.30;41.10;46.40;100426;;;;578929;244;23113;-80
2022/07/23 06:38:45;;;;;;;5.32;3.37;;;46.70;40.50;47.00;100441;;;;578955;244;23087;-84
2022/07/23 06:41:13;;;;;;;4.50;3.22;;;47.30;40.30;47.30;100459;;;;579059;244;23097;-84
2022/07/23 06:43:41;;;;;;;4.18;3.65;;;47.60;39.60;47.60;100460;;;;579127;244;23069;-85
2022/07/23 06:46:09;;;;;;;4.45;3.47;;;47.80;39.30;47.70;100454;;;;578904;244;23114;-81
2022/07/23 06:48:37;;;;;;;5.30;3.53;;;48.10;39.20;47.90;100451;;;;579140;244;23066;-81
2022/07/23 06:51:05;;;;;;;8.02;3.47;;;48.30;38.60;47.60;100454;;;;578935;244;23093;-84
2022/07/23 06:53:33;;;;;;;3.70;3.40;;;48.30;38.00;47.00;100460;;;;578678;244;24122;-82
2022/07/23 06:56:01;;;;;;;4.82;3.20;;;47.80;38.30;47.10;100457;;;;587194;244;23106;-76
2022/07/23 06:58:29;;;;;;;3.17;2.97;;;47.50;38.90;47.20;100466;;;;577934;244;23131;-77
2022/07/23 07:00:56;;;;;;;4.72;3.60;;;47.60;38.70;46.50;100459;;;;578317;242;23093;-77
2022/07/23 07:03:24;;;;;;;4.75;3.40;;;47.10;38.80;45.80;100467;;;;588252;244;23107;-76
2022/07/23 07:05:53;;;;;;;3.42;3.12;;;45.70;39.90;44.80;100469;;;;579082;244;23098;-76
2022/07/23 07:08:21;;;;;;;3.72;3.42;;;45.60;39.90;44.50;100469;;;;578768;244;23104;-77
2022/07/23 07:10:52;;;;;;;3.83;3.53;;;45.20;40.10;43.80;100460;;;;578999;244;23168;-76
2022/07/23 07:13:17;;;;;;;5.35;3.67;;;44.50;41.50;44.30;100459;;;;578263;244;23101;-76
2022/07/23 07:15:48;;;;;;;5.37;3.17;;;44.60;41.50;45.00;100464;;;;578660;244;23154;-77
2022/07/23 07:18:13;;;;;;;3.65;3.33;;;45.00;40.90;45.60;100464;;;;578912;244;23100;-77
2022/07/23 07:20:41;;;;;;;4.05;3.30;;;45.70;40.30;44.80;100467;;;;578277;244;23108;-76
2022/07/23 07:23:09;;;;;;;4.60;3.28;;;45.20;40.00;43.90;100473;;;;578352;244;23086;-77
2022/07/23 07:25:36;;;;;;;4.95;3.30;;;44.50;40.80;42.90;100465;;;;579230;244;23149;-83
2022/07/23 07:28:04;;;;;;;4.00;3.65;;;43.70;41.20;41.10;100461;;;;579291;244;23096;-85
2022/07/23 07:30:33;;;;;;;4.05;3.75;;;40.60;43.90;39.60;100469;;;;578981;244;23093;-76
2022/07/23 07:33:02;;;;;;;3.78;3.53;;;39.40;45.90;38.70;100460;;;;578626;244;24068;-77
2022/07/23 07:35:33;;;;;;;4.37;3.97;;;39.30;45.60;39.40;100452;;;;578901;244;24121;-78
2022/07/23 07:37:58;;;;;;;6.03;3.47;;;39.50;46.70;39.10;100459;;;;584573;244;23096;-82
2022/07/23 07:40:26;;;;;;;3.42;3.10;;;39.40;46.10;39.50;100459;;;;578781;244;23114;-77
2022/07/23 07:42:53;;;;;;;4.15;3.78;;;39.60;46.90;39.20;100464;;;;578403;244;23083;-77
2022/07/23 07:45:21;;;;;;;4.25;3.85;;;39.50;45.90;38.10;100464;;;;578338;244;23082;-77
2022/07/23 07:47:49;;;;;;;4.60;3.47;;;38.80;46.30;38.20;100460;;;;586078;244;23118;-77
2022/07/23 07:50:21;;;;;;;8.07;3.72;;;38.50;47.40;38.80;100459;;;;587221;241;23087;-82
2022/07/23 07:52:45;;;;;;;5.93;4.03;;;38.90;47.50;38.60;100460;;;;578172;244;23106;-80
2022/07/23 07:55:16;;;;;;;4.37;3.95;;;38.90;47.20;38.20;100457;;;;578343;244;23109;-77
2022/07/23 07:57:44;;;;;;;3.95;3.42;;;38.50;47.60;37.80;100462;;;;577914;244;23090;-78
2022/07/23 08:00:09;;;;;;;4.47;3.87;;;38.20;47.80;38.30;100453;;;;577760;244;23133;-78
2022/07/23 08:02:49;;;;;;;3.75;3.45;;;38.40;48.20;40.30;100455;;;;578135;244;24104;-78
2022/07/23 08:05:23;;;;;;;4.82;3.95;;;39.90;47.60;42.70;100448;;;;578079;244;23085;-78
2022/07/23 08:07:50;;;;;;;3.75;3.45;;;42.20;45.00;45.00;100452;;;;586700;244;23102;-80
2022/07/23 08:10:18;;;;;;;5.47;3.78;;;44.50;42.70;46.80;100449;;;;587226;244;23110;-81
2022/07/23 08:12:49;;;;;;;3.92;3.60;;;46.50;40.80;48.00;100453;;;;578593;243;23097;-77
2022/07/23 08:15:17;;;;;;;3.72;3.42;;;47.90;39.20;47.80;100452;;;;579464;244;23084;-76
2022/07/23 08:17:45;;;;;;;4.53;3.80;;;48.00;38.40;47.10;100440;;;;579031;244;23135;-79
2022/07/23 08:20:16;;;;;;;3.80;3.50;;;47.90;38.30;46.20;100453;;;;579330;244;23069;-80
2022/07/23 08:22:56;;;;;;;3.50;3.30;;;47.30;38.20;44.10;100461;;;;577981;244;23098;-77
2022/07/23 08:25:24;;;;;;;3.83;3.37;;;45.70;38.60;42.10;100469;;;;579400;244;24112;-82
2022/07/23 08:27:53;;;;;;;7.55;3.95;;;42.80;42.40;42.00;100468;;;;579478;244;23104;-80
2022/07/23 08:30:21;;;;;;;3.55;3.33;;;42.80;42.80;42.20;100459;;;;579452;244;23134;-80
2022/07/23 08:32:52;;;;;;;4.37;3.58;;;42.70;42.70;41.10;100458;;;;579494;244;23115;-79
2022/07/23 08:35:29;;;;;;;3.80;3.60;;;41.90;42.70;40.10;100456;;;;579563;244;23183;-77
2022/07/23 08:37:59;;;;;;;5.22;3.85;;;40.90;43.80;39.40;100456;;;;578601;244;23100;-82
2022/07/23 08:40:27;;;;;;;4.43;4.00;;;40.10;44.30;38.60;100458;;;;579068;244;23082;-83
2022/07/23 08:42:55;;;;;;;4.30;4.00;;;39.40;45.10;37.90;100452;;;;579509;244;23177;-77
2022/07/23 08:45:26;;;;;;;5.30;4.10;;;38.70;46.20;37.10;100447;;;;588601;244;23078;-79
2022/07/23 08:47:50;;;;;;;4.03;3.62;;;37.90;47.80;36.40;100442;;;;578529;244;23116;-77
2022/07/23 08:50:18;;;;;;;5.40;4.50;;;37.10;48.70;35.90;100446;;;;579502;244;23092;-78
2022/07/23 08:52:46;;;;;;;5.30;4.87;;;36.60;49.50;35.80;100445;;;;579653;244;23085;-78
2022/07/23 08:55:14;;;;;;;4.53;4.22;;;36.20;50.40;35.50;100435;;;;587457;244;24091;-77
2022/07/23 08:57:42;;;;;;;8.20;4.12;;;36.00;50.80;35.00;100439;;;;577920;244;23103;-78
2022/07/23 09:00:10;;;;;;;5.30;4.18;;;35.50;51.30;34.50;100436;;;;578109;244;24163;-77
2022/07/23 09:02:39;;;;;;;4.70;3.95;;;34.40;52.70;34.00;100439;;;;577813;244;23155;-76
2022/07/23 09:05:11;;;;;;;4.43;4.05;;;34.40;52.70;34.20;100437;;;;577811;244;23111;-77
2022/07/23 09:07:35;;;;;;;4.07;3.78;;;34.40;53.70;35.00;100439;;;;577578;244;24201;-75
2022/07/23 09:10:06;;;;;;;4.12;3.83;;;35.00;53.50;35.20;100435;;;;578024;244;23098;-76
2022/07/23 09:12:34;;;;;;;4.70;4.40;;;35.60;52.70;35.30;100437;;;;577993;244;23090;-76
2022/07/23 09:15:05;;;;;;;5.62;3.97;;;35.60;52.70;36.30;100443;;;;578133;244;23081;-75
2022/07/23 09:17:40;;;;;;;6.55;4.15;;;36.40;51.60;36.80;100441;;;;587124;244;23097;-75
2022/07/23 09:20:13;;;;;;;4.40;4.07;;;37.00;49.90;36.80;100432;;;;578799;244;24120;-76
2022/07/23 09:22:50;;;;;;;4.62;4.22;;;37.20;49.70;37.40;100431;;;;579197;244;23143;-80
2022/07/23 09:25:15;;;;;;;4.32;3.92;;;39.00;48.90;39.00;100434;;;;588362;243;23105;-79
2022/07/23 09:28:02;;;;;;;6.35;4.40;;;39.00;48.80;40.10;100448;;;;580742;244;23099;-76
2022/07/23 09:30:29;;;;;;;8.70;4.18;;;40.30;47.10;40.40;100435;;;;589028;244;23093;-78
2022/07/23 09:33:12;;;;;;;4.75;4.20;;;40.90;46.20;40.80;100437;;;;579922;244;23079;-76
2022/07/23 09:35:56;;;;;;;4.07;3.78;;;41.30;45.80;42.20;100431;;;;579322;244;23123;-78
2022/07/23 09:38:24;;;;;;;5.12;4.20;;;42.50;44.80;43.10;100420;;;;579699;244;23096;-78
2022/07/23 09:41:13;;;;;;;4.05;3.65;;;43.60;43.30;42.40;100416;;;;579490;244;24125;-77
2022/07/23 09:43:38;;;;;;;4.15;3.85;;;43.40;42.50;41.60;100424;;;;578527;244;23181;-77
2022/07/23 09:46:19;;;;;;;4.60;4.30;;;42.70;42.70;41.50;100411;;;;579004;244;23123;-79
2022/07/23 09:48:51;;;;;;;7.10;4.37;;;42.40;43.20;42.00;100419;;;;578939;244;23175;-79
2022/07/23 09:51:20;;;;;;;4.78;4.37;;;42.60;43.50;42.30;100422;;;;588217;241;23107;-77
2022/07/23 09:53:45;;;;;;;3.92;3.55;;;42.90;43.10;43.30;100422;;;;579343;244;23099;-77
2022/07/23 09:56:12;;;;;;;4.07;3.80;;;43.70;42.70;43.70;100419;;;;578949;244;23127;-78
2022/07/23 09:58:46;;;;;;;5.12;3.92;;;44.30;41.60;44.10;100425;;;;578044;244;23094;-77
2022/07/23 10:01:12;;;;;;;14.23;4.43;;;45.70;40.30;45.20;100421;;;;586921;241;23110;-77
2022/07/23 10:03:41;;;;;;;4.95;3.80;;;46.60;39.50;46.00;100417;;;;577820;244;23106;-77
2022/07/23 10:06:12;;;;;;;4.32;4.03;;;47.00;38.80;46.00;100427;;;;577942;244;23098;-75
2022/07/23 10:08:44;;;;;;;4.10;3.75;;;46.90;38.70;44.60;100431;;;;586792;244;23122;-77
2022/07/23 10:11:09;;;;;;;4.60;3.53;;;46.10;39.00;43.10;100434;;;;577012;244;23106;-79
2022/07/23 10:13:56;;;;;;;6.05;4.50;;;44.70;39.90;41.80;100435;;;;577871;244;24171;-78
2022/07/23 10:16:23;;;;;;;8.65;4.43;;;43.20;41.30;40.00;100453;;;;577796;244;23126;-77
2022/07/23 10:18:54;;;;;;;4.70;3.97;;;41.40;42.50;38.50;100462;;;;578099;244;23098;-76
2022/07/23 10:21:41;;;;;;;6.75;4.35;;;39.70;44.10;37.20;100449;;;;577657;244;23110;-76
2022/07/23 10:24:29;;;;;;;6.93;4.20;;;38.20;46.80;35.80;100457;;;;578068;244;25368;-76
2022/07/23 10:27:06;;;;;;;4.28;3.87;;;35.20;50.20;34.40;100460;;;;578299;244;24153;-77
2022/07/23 10:29:55;;;;;;;5.03;4.07;;;35.10;50.10;33.50;100462;;;;577699;244;23095;-77
2022/07/23 10:32:38;;;;;;;4.80;4.30;;;34.00;52.00;32.90;100465;;;;578637;244;23110;-77
2022/07/23 10:35:40;;;;;;;6.00;4.93;;;33.20;53.90;32.30;100466;;;;577610;244;23097;-77
2022/07/23 10:38:14;;;;;;;4.35;3.90;;;32.60;54.90;31.60;100455;;;;588700;244;24134;-76
2022/07/23 10:40:57;;;;;;;7.32;4.55;;;31.90;56.50;31.20;100449;;;;579156;244;24125;-76
2022/07/23 10:43:28;;;;;;;11.10;4.62;;;31.40;57.60;30.90;100448;;;;579345;244;23118;-76
2022/07/23 10:45:53;;;;;;;11.15;5.50;;;31.00;59.10;30.40;100450;;;;578906;244;23151;-78
2022/07/23 10:48:25;;;;;;;6.90;4.20;;;30.60;60.00;30.00;100454;;;;579232;244;23086;-75
2022/07/23 10:51:13;;;;;;;5.20;4.72;;;29.90;61.70;29.70;100461;;;;579379;244;23125;-76
2022/07/23 10:53:57;;;;;;;5.20;4.80;;;29.80;61.60;29.20;100460;;;;578926;244;23115;-75
2022/07/23 10:56:59;;;;;;;4.70;4.43;;;29.50;62.60;28.50;100460;;;;579001;244;23144;-76
2022/07/23 10:59:24;;;;;;;4.87;4.50;;;28.30;66.50;27.80;100465;;;;587805;244;23128;-77
2022/07/23 11:01:52;;;;;;;7.47;3.97;;;28.20;66.50;27.50;100465;;;;588475;244;23136;-78
2022/07/23 11:04:20;;;;;;;5.13;4.70;;;27.60;69.50;27.30;100461;;;;578351;244;23100;-76
2022/07/23 11:06:49;;;;;;;5.33;4.87;;;27.40;71.10;27.10;100458;;;;575211;244;23075;-75
2022/07/23 11:09:26;;;;;;;5.27;4.80;;;27.30;70.50;27.00;100459;;;;577835;244;23085;-75
2022/07/23 11:12:13;;;;;;;5.60;5.07;;;27.20;71.60;26.80;100441;;;;578203;244;23124;-77
2022/07/23 11:15:09;;;;;;;6.53;4.90;;;27.00;72.70;26.60;100429;;;;576583;244;24114;-77
2022/07/23 11:17:52;;;;;;;9.75;6.05;;;26.80;72.80;26.40;100435;;;;572862;244;46265;-77